Time;durP1;ratioP1;P1;durP2;ratioP2;P2;SDS_P1;SDS_P2;PMS_P1;PMS_P2;Temp;Humidity;BMP_temperature;BMP_pressure;BME280_temperature;BME280_humidity;BME280_pressure;Samples;Min_cycle;Max_cycle;Signal;HPM_P1;HPM_P2
2023/03/19 00:00:48;;;;;;;16.45;6.35;;;29.70;99.90;;;;;;5024930;28;20430;-63
2023/03/19 00:03:15;;;;;;;14.82;5.82;;;30.10;99.90;;;;;;5024854;28;20034;-63
2023/03/19 00:05:51;;;;;;;16.13;6.38;;;30.30;99.90;;;;;;5025017;28;20124;-67
2023/03/19 00:08:19;;;;;;;13.25;6.20;;;30.50;99.90;;;;;;5026268;28;20131;-63
2023/03/19 00:10:47;;;;;;;18.80;6.72;;;30.80;99.90;;;;;;5026518;28;20065;-63
2023/03/19 00:13:14;;;;;;;10.25;5.57;;;31.00;99.90;;;;;;5026070;28;20037;-66
2023/03/19 00:15:42;;;;;;;20.73;7.13;;;31.00;99.90;;;;;;5033887;28;20037;-63
2023/03/19 00:18:10;;;;;;;12.52;5.25;;;30.80;99.90;;;;;;5029355;28;20033;-63
2023/03/19 00:20:37;;;;;;;15.32;5.72;;;30.80;99.90;;;;;;5028600;28;20557;-62
2023/03/19 00:23:05;;;;;;;10.43;5.40;;;31.00;99.90;;;;;;5026680;28;20041;-63
2023/03/19 00:25:32;;;;;;;11.10;4.80;;;31.20;99.90;;;;;;5027301;28;20040;-63
2023/03/19 00:28:00;;;;;;;12.90;4.93;;;31.40;99.90;;;;;;5028609;28;20448;-62
2023/03/19 00:30:28;;;;;;;11.02;4.28;;;31.70;99.90;;;;;;5023848;28;20064;-64
2023/03/19 00:32:55;;;;;;;8.65;4.28;;;31.80;99.90;;;;;;5029610;28;20090;-61
2023/03/19 00:35:23;;;;;;;10.95;4.90;;;31.90;99.90;;;;;;5031832;28;20028;-61
2023/03/19 00:37:51;;;;;;;11.60;5.32;;;32.10;99.90;;;;;;5037186;28;20029;-62
2023/03/19 00:40:19;;;;;;;9.57;4.50;;;32.30;99.90;;;;;;5028560;28;20013;-61
2023/03/19 00:42:46;;;;;;;9.88;4.45;;;32.40;99.20;;;;;;5028833;28;20045;-63
2023/03/19 00:45:17;;;;;;;8.63;3.92;;;32.60;98.90;;;;;;5029752;28;20048;-63
2023/03/19 00:47:44;;;;;;;12.32;5.05;;;32.80;97.40;;;;;;5029295;28;20586;-62
2023/03/19 00:50:12;;;;;;;7.63;4.05;;;32.90;96.90;;;;;;5031479;28;20128;-63
2023/03/19 00:52:40;;;;;;;7.53;4.20;;;33.10;96.50;;;;;;5029563;28;20055;-66
2023/03/19 00:55:07;;;;;;;7.85;3.75;;;33.00;93.10;;;;;;5026308;28;20034;-62
2023/03/19 00:57:35;;;;;;;8.73;4.68;;;33.00;92.60;;;;;;5026762;28;20364;-62
2023/03/19 01:00:02;;;;;;;7.07;3.90;;;32.90;91.80;;;;;;5031355;28;20096;-59
2023/03/19 01:02:31;;;;;;;6.28;4.40;;;33.00;93.00;;;;;;5030720;28;20033;-62
2023/03/19 01:04:59;;;;;;;5.72;3.33;;;33.20;93.80;;;;;;5029176;28;20401;-62
2023/03/19 01:07:26;;;;;;;8.02;3.95;;;33.40;91.20;;;;;;5027483;28;20045;-62
2023/03/19 01:09:53;;;;;;;7.25;3.90;;;33.70;90.90;;;;;;5028692;28;20490;-63
2023/03/19 01:12:21;;;;;;;7.65;3.70;;;33.80;87.10;;;;;;5029010;28;20505;-61
2023/03/19 01:14:49;;;;;;;11.75;5.22;;;33.90;90.10;;;;;;5023252;28;20034;-62
2023/03/19 01:17:16;;;;;;;5.22;3.55;;;34.00;85.20;;;;;;5029992;28;20434;-61
2023/03/19 01:19:44;;;;;;;5.45;3.42;;;34.10;87.10;;;;;;5030879;28;20395;-64
2023/03/19 01:22:13;;;;;;;6.00;3.30;;;34.20;82.50;;;;;;5029514;28;20024;-64
2023/03/19 01:24:40;;;;;;;5.47;3.25;;;34.30;79.40;;;;;;5026844;28;20520;-62
2023/03/19 01:27:08;;;;;;;5.95;3.22;;;34.40;80.30;;;;;;5032344;28;20067;-63
2023/03/19 01:29:35;;;;;;;7.65;3.40;;;34.50;77.40;;;;;;5025327;28;20041;-64
2023/03/19 01:32:03;;;;;;;6.13;3.15;;;34.50;77.90;;;;;;5029587;28;20736;-64
2023/03/19 01:34:30;;;;;;;6.20;3.30;;;34.80;83.00;;;;;;5029214;28;20040;-63
2023/03/19 01:36:58;;;;;;;5.65;3.25;;;35.00;79.30;;;;;;5026736;28;20017;-60
2023/03/19 01:39:26;;;;;;;5.22;3.33;;;35.20;80.00;;;;;;5031574;28;20490;-61
2023/03/19 01:41:54;;;;;;;8.32;3.70;;;35.40;71.40;;;;;;5029710;28;20368;-61
2023/03/19 01:44:33;;;;;;;5.65;3.70;;;35.20;73.10;;;;;;5034424;28;20032;-61
2023/03/19 01:47:04;;;;;;;6.72;3.47;;;35.10;72.80;;;;;;5024823;28;20088;-61
2023/03/19 01:49:32;;;;;;;4.25;3.13;;;35.30;79.50;;;;;;5019001;28;20577;-62
2023/03/19 01:52:02;;;;;;;8.00;4.30;;;35.60;77.70;;;;;;5030855;28;20483;-61
2023/03/19 01:54:31;;;;;;;6.43;3.25;;;35.90;76.10;;;;;;5028781;28;20087;-62
2023/03/19 01:57:04;;;;;;;5.63;3.45;;;36.00;73.40;;;;;;5026917;28;20041;-64
2023/03/19 01:59:42;;;;;;;5.70;3.13;;;35.70;67.30;;;;;;5035422;28;20037;-63
2023/03/19 02:02:29;;;;;;;4.90;2.90;;;35.70;68.50;;;;;;5030277;28;20029;-63
2023/03/19 02:05:10;;;;;;;5.43;2.70;;;35.70;68.20;;;;;;5027814;28;20079;-62
2023/03/19 02:07:40;;;;;;;6.65;2.92;;;35.90;66.80;;;;;;5024306;28;20386;-63
2023/03/19 02:10:11;;;;;;;4.32;2.55;;;36.00;67.40;;;;;;5027777;28;20024;-61
2023/03/19 02:12:39;;;;;;;8.23;3.17;;;36.10;68.90;;;;;;5027510;28;20021;-62
2023/03/19 02:15:07;;;;;;;5.68;2.90;;;36.20;64.80;;;;;;5026522;28;20482;-62
2023/03/19 02:17:34;;;;;;;6.88;3.15;;;36.40;69.70;;;;;;5027983;28;20030;-65
2023/03/19 02:20:20;;;;;;;11.02;3.15;;;36.70;67.80;;;;;;5026820;28;20025;-63
2023/03/19 02:23:02;;;;;;;7.65;3.67;;;36.80;65.60;;;;;;5025530;28;20030;-63
2023/03/19 02:25:39;;;;;;;6.88;2.95;;;36.90;64.20;;;;;;5010940;28;20092;-68
2023/03/19 02:28:08;;;;;;;6.30;2.35;;;37.00;59.90;;;;;;5018594;28;20057;-66
2023/03/19 02:30:36;;;;;;;3.90;2.70;;;37.00;58.10;;;;;;5027693;28;20029;-67
2023/03/19 02:33:05;;;;;;;3.50;2.42;;;37.20;62.90;;;;;;5025491;28;20033;-67
2023/03/19 02:35:34;;;;;;;4.00;2.35;;;37.40;61.00;;;;;;5032116;28;20034;-67
2023/03/19 02:38:04;;;;;;;5.05;2.72;;;37.50;58.60;;;;;;5030065;28;20053;-67
2023/03/19 02:40:38;;;;;;;5.45;2.95;;;37.60;58.40;;;;;;5030094;28;20021;-67
2023/03/19 02:43:06;;;;;;;3.92;2.60;;;37.80;58.70;;;;;;5029047;28;20053;-66
2023/03/19 02:45:33;;;;;;;10.30;2.83;;;37.90;56.10;;;;;;5025625;28;20094;-66
2023/03/19 02:48:01;;;;;;;7.60;3.35;;;38.10;54.00;;;;;;5027814;28;20486;-67
2023/03/19 02:50:29;;;;;;;7.60;2.80;;;38.20;55.00;;;;;;5026965;28;20038;-66
2023/03/19 02:52:56;;;;;;;8.18;3.50;;;38.40;53.80;;;;;;5027096;28;20449;-67
2023/03/19 02:55:24;;;;;;;4.70;2.65;;;38.50;55.60;;;;;;5022265;28;20022;-67
2023/03/19 02:57:51;;;;;;;6.93;3.58;;;38.50;53.70;;;;;;5026773;28;20041;-68
2023/03/19 03:00:19;;;;;;;8.80;3.78;;;38.60;52.80;;;;;;5027032;28;20525;-67
2023/03/19 03:02:47;;;;;;;10.75;3.60;;;38.50;54.50;;;;;;5027149;28;20029;-67
2023/03/19 03:05:14;;;;;;;7.68;3.58;;;38.60;52.10;;;;;;5027167;28;20025;-67
2023/03/19 03:07:44;;;;;;;8.07;3.40;;;38.50;51.80;;;;;;5027681;28;20034;-68
2023/03/19 03:10:12;;;;;;;7.07;3.55;;;38.60;51.40;;;;;;5028190;28;20072;-69
2023/03/19 03:12:40;;;;;;;8.27;3.60;;;38.50;48.70;;;;;;5026372;28;20038;-67
2023/03/19 03:15:08;;;;;;;6.30;2.45;;;38.50;49.40;;;;;;5027127;28;20057;-68
2023/03/19 03:17:39;;;;;;;4.68;2.30;;;38.60;48.30;;;;;;5026950;28;20116;-67
2023/03/19 03:20:10;;;;;;;3.25;1.80;;;38.60;47.10;;;;;;5026979;28;20033;-68
2023/03/19 03:22:38;;;;;;;4.82;1.95;;;38.70;48.00;;;;;;5026118;28;20030;-67
2023/03/19 03:25:06;;;;;;;4.20;1.30;;;38.60;45.90;;;;;;5026917;28;20030;-67
2023/03/19 03:27:34;;;;;;;5.95;1.27;;;38.60;42.30;;;;;;5026970;28;20524;-69
2023/03/19 03:30:01;;;;;;;3.58;1.35;;;38.60;44.40;;;;;;5027157;28;20073;-67
2023/03/19 03:32:29;;;;;;;4.03;1.40;;;38.70;42.60;;;;;;5026441;28;20067;-67
2023/03/19 03:34:56;;;;;;;4.45;1.42;;;38.80;44.00;;;;;;5026649;28;20104;-68
2023/03/19 03:37:27;;;;;;;4.03;1.30;;;39.00;43.70;;;;;;5026673;28;20510;-68
2023/03/19 03:39:54;;;;;;;2.05;1.25;;;39.00;43.80;;;;;;5026537;28;20057;-68
2023/03/19 03:42:21;;;;;;;3.78;1.17;;;39.20;43.70;;;;;;5026705;28;20060;-67
2023/03/19 03:44:49;;;;;;;3.78;1.00;;;39.40;44.10;;;;;;5025439;28;20105;-68
2023/03/19 03:47:17;;;;;;;2.05;0.80;;;39.50;42.30;;;;;;5026562;28;20075;-68
2023/03/19 03:49:44;;;;;;;4.78;1.30;;;39.50;39.60;;;;;;5027138;28;20025;-68
2023/03/19 03:52:12;;;;;;;6.85;1.20;;;39.40;40.40;;;;;;5026993;28;20041;-69
2023/03/19 03:54:39;;;;;;;2.00;0.93;;;39.50;41.90;;;;;;5026219;28;20431;-68
2023/03/19 03:57:09;;;;;;;3.33;1.17;;;39.60;40.90;;;;;;5024025;28;20108;-68
2023/03/19 03:59:41;;;;;;;1.90;1.00;;;39.60;41.50;;;;;;5026806;28;20044;-69
2023/03/19 04:02:08;;;;;;;3.42;1.35;;;39.80;40.70;;;;;;5026954;28;20014;-69
2023/03/19 04:04:36;;;;;;;3.45;1.17;;;39.70;39.90;;;;;;5026604;28;20405;-68
2023/03/19 04:07:03;;;;;;;3.10;1.20;;;39.70;40.70;;;;;;5025818;28;20037;-69
2023/03/19 04:09:31;;;;;;;4.35;1.10;;;39.70;39.50;;;;;;5025867;28;20466;-68
2023/03/19 04:11:59;;;;;;;5.22;1.35;;;39.70;39.40;;;;;;5026352;28;20386;-68
2023/03/19 04:14:26;;;;;;;3.65;1.70;;;39.70;40.10;;;;;;5026579;28;20034;-68
2023/03/19 04:16:54;;;;;;;2.58;1.27;;;39.70;40.60;;;;;;5026857;28;20029;-69
2023/03/19 04:19:21;;;;;;;4.40;1.27;;;39.80;40.30;;;;;;5026335;28;20029;-67
2023/03/19 04:21:49;;;;;;;3.15;1.35;;;39.70;40.70;;;;;;5026675;28;20502;-67
2023/03/19 04:24:16;;;;;;;4.15;1.10;;;39.80;39.40;;;;;;5026270;28;20033;-67
2023/03/19 04:26:45;;;;;;;3.38;1.30;;;39.90;40.10;;;;;;5026642;28;20116;-67
2023/03/19 04:29:13;;;;;;;1.75;1.35;;;40.00;40.60;;;;;;5026790;28;20453;-66
2023/03/19 04:31:40;;;;;;;2.60;1.35;;;40.00;39.70;;;;;;5026643;28;20041;-67
2023/03/19 04:34:08;;;;;;;1.67;0.73;;;39.90;38.60;;;;;;5026388;28;20060;-68
2023/03/19 04:36:35;;;;;;;2.13;0.88;;;40.00;36.70;;;;;;5025854;28;20037;-66
2023/03/19 04:39:03;;;;;;;3.53;1.20;;;39.90;36.60;;;;;;5026366;28;20068;-67
2023/03/19 04:41:31;;;;;;;2.13;0.93;;;39.80;36.80;;;;;;5026419;28;20108;-67
2023/03/19 04:43:58;;;;;;;1.98;0.90;;;39.70;39.00;;;;;;5025835;28;20036;-67
2023/03/19 04:46:26;;;;;;;3.22;1.00;;;39.70;39.30;;;;;;5026177;28;20025;-67
2023/03/19 04:48:54;;;;;;;1.55;0.90;;;39.70;38.00;;;;;;5026548;28;20041;-67
2023/03/19 04:51:22;;;;;;;2.13;0.90;;;39.70;38.50;;;;;;5026365;28;20530;-66
2023/03/19 04:53:49;;;;;;;3.47;1.00;;;39.70;38.00;;;;;;5026268;28;20033;-67
2023/03/19 04:56:17;;;;;;;5.18;0.82;;;39.70;38.80;;;;;;5027884;28;20033;-68
2023/03/19 04:58:45;;;;;;;2.35;0.88;;;39.70;37.60;;;;;;5030022;28;20032;-67
2023/03/19 05:01:13;;;;;;;3.70;1.20;;;39.70;38.70;;;;;;5030176;28;20056;-68
2023/03/19 05:03:40;;;;;;;3.08;1.58;;;39.60;38.90;;;;;;5030395;28;20032;-67
2023/03/19 05:06:08;;;;;;;6.60;1.90;;;39.60;40.70;;;;;;5029421;28;20048;-68
2023/03/19 05:08:36;;;;;;;3.97;1.70;;;39.40;41.60;;;;;;5028925;28;20034;-68
2023/03/19 05:11:03;;;;;;;6.63;1.90;;;39.30;42.10;;;;;;5029390;28;20044;-68
2023/03/19 05:13:30;;;;;;;4.57;2.15;;;39.20;43.30;;;;;;5029321;28;20398;-68
2023/03/19 05:15:58;;;;;;;4.80;1.95;;;39.10;44.10;;;;;;5029320;28;20032;-68
2023/03/19 05:18:26;;;;;;;5.30;2.53;;;39.10;44.90;;;;;;5031855;28;20040;-67
2023/03/19 05:20:54;;;;;;;10.05;3.15;;;39.00;46.10;;;;;;5050777;28;20108;-66
2023/03/19 05:23:22;;;;;;;6.63;2.50;;;38.80;46.20;;;;;;5036994;28;20021;-67
2023/03/19 05:25:49;;;;;;;4.60;2.90;;;38.60;46.00;;;;;;5031364;28;20065;-66
2023/03/19 05:28:17;;;;;;;6.43;2.72;;;38.40;46.90;;;;;;5031805;28;20064;-67
2023/03/19 05:30:45;;;;;;;4.88;2.72;;;38.30;49.10;;;;;;5031889;28;20511;-67
2023/03/19 05:33:12;;;;;;;5.95;3.25;;;38.10;47.20;;;;;;5032283;28;20060;-67
2023/03/19 05:35:40;;;;;;;9.45;2.80;;;37.90;47.60;;;;;;5032311;28;20017;-67
2023/03/19 05:38:09;;;;;;;6.95;2.58;;;37.60;46.30;;;;;;5031151;28;20025;-67
2023/03/19 05:40:40;;;;;;;3.97;2.53;;;37.40;45.90;;;;;;5031637;28;20059;-67
2023/03/19 05:43:09;;;;;;;7.63;2.92;;;37.40;47.40;;;;;;5031604;28;20022;-67
2023/03/19 05:45:37;;;;;;;10.23;3.45;;;37.30;48.50;;;;;;5031243;28;20022;-67
2023/03/19 05:48:05;;;;;;;4.78;2.63;;;37.10;48.00;;;;;;5031015;28;20091;-67
2023/03/19 05:50:33;;;;;;;6.70;3.22;;;36.90;50.60;;;;;;5031254;28;20040;-67
2023/03/19 05:53:01;;;;;;;8.43;3.08;;;36.70;50.10;;;;;;5031558;28;20026;-67
2023/03/19 05:55:29;;;;;;;5.35;2.72;;;36.40;49.90;;;;;;5031439;28;20071;-67
2023/03/19 05:57:56;;;;;;;5.30;3.22;;;36.30;50.60;;;;;;5031340;28;20109;-69
2023/03/19 06:00:24;;;;;;;6.78;3.05;;;36.10;51.70;;;;;;5030925;28;20044;-68
2023/03/19 06:02:51;;;;;;;7.47;3.20;;;35.90;52.40;;;;;;5031346;28;20021;-68
2023/03/19 06:05:19;;;;;;;4.72;2.58;;;35.80;52.40;;;;;;5030941;28;20418;-68
2023/03/19 06:07:47;;;;;;;6.97;2.28;;;35.70;50.40;;;;;;5028765;28;20410;-68
2023/03/19 06:10:14;;;;;;;6.53;2.45;;;35.70;51.90;;;;;;5030846;28;20025;-67
2023/03/19 06:12:41;;;;;;;6.18;2.95;;;35.60;50.60;;;;;;5030393;28;20088;-68
2023/03/19 06:15:09;;;;;;;4.18;2.53;;;35.50;52.30;;;;;;5031024;28;20029;-68
2023/03/19 06:17:37;;;;;;;9.90;2.83;;;35.40;52.90;;;;;;5030867;28;20456;-68
2023/03/19 06:20:06;;;;;;;3.47;2.40;;;35.30;53.10;;;;;;5030184;28;20509;-68
2023/03/19 06:22:33;;;;;;;5.75;2.92;;;35.20;52.30;;;;;;5030983;28;20045;-67
2023/03/19 06:25:00;;;;;;;5.13;3.40;;;35.10;53.20;;;;;;5030256;28;20029;-66
2023/03/19 06:27:28;;;;;;;5.75;2.95;;;35.00;55.20;;;;;;5030684;28;20127;-67
2023/03/19 06:29:55;;;;;;;6.65;2.63;;;34.80;54.30;;;;;;5030893;28;20033;-66
2023/03/19 06:32:22;;;;;;;7.72;2.63;;;34.70;54.20;;;;;;5030819;28;20026;-66
2023/03/19 06:34:50;;;;;;;8.88;2.90;;;34.50;53.80;;;;;;5029348;28;20031;-65
2023/03/19 06:37:18;;;;;;;8.32;2.90;;;34.30;54.50;;;;;;5030229;28;20022;-65
2023/03/19 06:39:45;;;;;;;4.03;2.78;;;34.20;54.80;;;;;;5030252;28;20067;-65
2023/03/19 06:42:13;;;;;;;7.63;2.85;;;34.10;56.20;;;;;;5030921;28;20021;-65
2023/03/19 06:44:40;;;;;;;7.22;3.35;;;34.10;57.60;;;;;;5030285;28;20036;-60
2023/03/19 06:47:08;;;;;;;8.52;3.45;;;34.00;58.50;;;;;;5030345;28;20394;-60
2023/03/19 06:49:36;;;;;;;6.78;3.20;;;33.80;58.30;;;;;;5028576;28;20048;-60
2023/03/19 06:52:04;;;;;;;7.38;2.55;;;33.70;58.90;;;;;;5028094;28;20080;-60
2023/03/19 06:54:31;;;;;;;4.25;2.83;;;33.60;59.00;;;;;;5030036;28;20048;-61
2023/03/19 06:56:59;;;;;;;6.43;3.00;;;33.50;59.20;;;;;;5029936;28;20034;-60
2023/03/19 06:59:27;;;;;;;7.22;3.72;;;33.40;59.20;;;;;;5028552;28;20550;-60
2023/03/19 07:01:54;;;;;;;6.13;3.00;;;33.20;59.90;;;;;;5030008;28;20665;-61
2023/03/19 07:04:22;;;;;;;5.65;3.13;;;33.20;60.80;;;;;;5030169;28;20025;-62
2023/03/19 07:06:49;;;;;;;6.20;3.45;;;33.10;61.50;;;;;;5029273;28;20037;-62
2023/03/19 07:09:17;;;;;;;12.18;4.07;;;32.90;62.10;;;;;;5029396;28;20418;-61
2023/03/19 07:11:44;;;;;;;6.85;2.90;;;32.80;62.50;;;;;;5029736;28;20049;-62
2023/03/19 07:14:12;;;;;;;8.13;3.90;;;32.70;63.10;;;;;;5030208;28;20346;-62
2023/03/19 07:16:39;;;;;;;7.30;3.70;;;32.60;63.90;;;;;;5030164;28;20103;-61
2023/03/19 07:19:07;;;;;;;8.40;3.25;;;32.50;64.90;;;;;;5029416;28;20463;-60
2023/03/19 07:21:34;;;;;;;6.47;3.03;;;32.40;65.70;;;;;;5029439;28;20026;-60
2023/03/19 07:24:02;;;;;;;5.93;3.72;;;32.30;66.50;;;;;;5027858;28;20499;-60
2023/03/19 07:26:30;;;;;;;6.93;3.42;;;32.20;67.00;;;;;;5029661;28;20032;-60
2023/03/19 07:28:57;;;;;;;7.13;3.17;;;32.10;67.60;;;;;;5029504;28;20033;-59
2023/03/19 07:31:28;;;;;;;7.38;3.70;;;32.00;68.30;;;;;;5025250;28;20045;-60
2023/03/19 07:33:55;;;;;;;10.70;3.50;;;31.90;69.20;;;;;;5007513;28;20726;-61
2023/03/19 07:36:23;;;;;;;7.85;3.22;;;31.70;70.40;;;;;;5021113;28;20021;-60
2023/03/19 07:38:50;;;;;;;9.07;3.72;;;31.60;70.90;;;;;;5026660;28;20029;-59
2023/03/19 07:41:18;;;;;;;6.45;3.50;;;31.60;71.70;;;;;;5025339;28;20017;-60
2023/03/19 07:43:45;;;;;;;7.47;3.60;;;31.40;72.40;;;;;;5026210;28;20029;-60
2023/03/19 07:46:13;;;;;;;8.10;4.18;;;31.40;73.70;;;;;;5026982;28;20411;-59
2023/03/19 07:48:40;;;;;;;7.85;4.15;;;31.20;75.30;;;;;;5026483;28;20053;-58
2023/03/19 07:51:08;;;;;;;9.70;4.30;;;31.10;77.50;;;;;;5025754;28;20029;-59
2023/03/19 07:53:35;;;;;;;13.45;5.50;;;31.00;80.70;;;;;;5026229;28;20036;-60
2023/03/19 07:56:02;;;;;;;10.38;5.35;;;30.80;84.50;;;;;;5027043;28;20382;-60
2023/03/19 07:58:30;;;;;;;9.25;4.85;;;30.60;88.90;;;;;;5027042;28;20083;-59
2023/03/19 08:00:58;;;;;;;10.65;5.43;;;30.40;91.40;;;;;;5026199;28;20061;-59
2023/03/19 08:03:25;;;;;;;9.43;5.05;;;30.10;93.30;;;;;;5026496;28;20036;-59
2023/03/19 08:05:52;;;;;;;10.38;5.35;;;29.90;95.30;;;;;;5026823;28;20557;-59
2023/03/19 08:08:20;;;;;;;12.10;5.38;;;29.70;97.40;;;;;;5026090;28;20033;-60
2023/03/19 08:10:49;;;;;;;12.77;6.10;;;29.40;99.50;;;;;;5026091;28;20064;-60
2023/03/19 08:13:17;;;;;;;17.10;6.13;;;29.20;99.90;;;;;;5026910;28;20517;-59
2023/03/19 08:15:44;;;;;;;9.70;6.05;;;29.00;99.90;;;;;;5021646;28;20057;-62
2023/03/19 08:18:12;;;;;;;16.25;7.90;;;28.80;99.90;;;;;;5022175;28;20732;-60
2023/03/19 08:20:40;;;;;;;14.68;6.45;;;28.60;99.90;;;;;;5026563;28;20103;-60
2023/03/19 08:23:07;;;;;;;15.98;6.28;;;28.40;99.90;;;;;;5024388;28;20091;-60
2023/03/19 08:25:34;;;;;;;17.30;7.15;;;28.20;99.90;;;;;;5022286;28;20040;-59
2023/03/19 08:28:02;;;;;;;13.20;6.13;;;28.00;99.90;;;;;;5023631;28;20037;-59
2023/03/19 08:30:30;;;;;;;14.07;6.72;;;27.80;99.90;;;;;;5022659;28;20018;-60
2023/03/19 08:32:58;;;;;;;15.63;6.40;;;27.60;99.90;;;;;;5028918;28;20120;-59
2023/03/19 08:35:28;;;;;;;18.38;6.60;;;27.40;99.90;;;;;;5031672;28;20105;-59
2023/03/19 08:37:56;;;;;;;15.02;6.25;;;27.30;99.90;;;;;;5029475;28;20524;-59
2023/03/19 08:40:24;;;;;;;17.08;7.07;;;27.10;99.90;;;;;;5027801;28;20473;-61
2023/03/19 08:42:52;;;;;;;18.15;7.10;;;27.00;99.90;;;;;;5029188;28;20453;-59
2023/03/19 08:45:20;;;;;;;12.90;6.68;;;26.80;99.90;;;;;;5029423;28;20143;-60
2023/03/19 08:47:49;;;;;;;15.30;6.75;;;26.70;99.90;;;;;;5029896;28;20037;-59
2023/03/19 08:50:17;;;;;;;15.15;6.43;;;26.60;99.90;;;;;;5029897;28;20029;-59
2023/03/19 08:52:44;;;;;;;13.45;6.75;;;26.50;99.90;;;;;;5028785;28;20364;-62
2023/03/19 08:55:13;;;;;;;15.18;7.25;;;26.30;99.90;;;;;;5026886;28;20562;-61
2023/03/19 08:57:41;;;;;;;13.23;7.03;;;26.20;99.90;;;;;;5030201;28;20037;-59
2023/03/19 09:00:09;;;;;;;13.82;7.30;;;26.00;99.90;;;;;;5023923;28;20044;-59
2023/03/19 09:02:37;;;;;;;16.55;8.07;;;26.00;99.90;;;;;;5011814;28;20044;-59
2023/03/19 09:05:06;;;;;;;17.85;7.78;;;25.80;99.90;;;;;;5023872;28;20549;-59
2023/03/19 09:07:33;;;;;;;12.75;7.78;;;25.70;99.90;;;;;;5022530;28;20476;-59
2023/03/19 09:10:00;;;;;;;19.27;8.60;;;25.70;99.90;;;;;;5023643;28;20029;-59
2023/03/19 09:12:28;;;;;;;25.17;8.02;;;25.60;99.90;;;;;;5028524;28;20486;-59
2023/03/19 09:14:55;;;;;;;14.80;9.30;;;25.50;99.90;;;;;;5028583;28;20041;-59
2023/03/19 09:17:23;;;;;;;17.08;8.65;;;25.40;99.90;;;;;;5028701;28;20021;-59
2023/03/19 09:19:50;;;;;;;15.40;8.88;;;25.30;99.90;;;;;;5026527;28;20056;-59
2023/03/19 09:22:18;;;;;;;18.52;9.40;;;25.20;99.90;;;;;;5028612;28;20026;-59
2023/03/19 09:24:45;;;;;;;20.83;10.15;;;25.00;99.90;;;;;;5027123;28;20025;-59
2023/03/19 09:27:13;;;;;;;17.00;9.02;;;24.90;99.90;;;;;;5026476;28;20164;-59
2023/03/19 09:29:40;;;;;;;13.63;8.75;;;24.80;99.90;;;;;;5024630;28;20502;-59
2023/03/19 09:32:07;;;;;;;16.13;9.27;;;24.70;99.90;;;;;;5023912;28;20026;-59
2023/03/19 09:34:35;;;;;;;18.83;9.35;;;24.60;99.90;;;;;;5024904;28;20700;-59
2023/03/19 09:37:02;;;;;;;25.08;9.32;;;24.50;99.90;;;;;;5023784;28;20037;-59
2023/03/19 09:39:31;;;;;;;21.92;9.15;;;24.50;99.90;;;;;;5024905;28;20036;-59
2023/03/19 09:42:20;;;;;;;17.13;8.45;;;24.40;99.90;;;;;;5022005;28;20036;-58
2023/03/19 09:44:48;;;;;;;23.58;8.27;;;24.40;99.90;;;;;;5026536;28;20034;-59
2023/03/19 09:47:27;;;;;;;20.58;8.88;;;24.30;99.90;;;;;;5023468;28;20233;-59
2023/03/19 09:50:04;;;;;;;17.60;8.52;;;24.20;99.90;;;;;;5022629;28;20600;-60
2023/03/19 09:52:43;;;;;;;29.77;8.73;;;24.10;99.90;;;;;;5025332;28;20041;-59
2023/03/19 09:55:37;;;;;;;31.35;10.15;;;24.10;99.90;;;;;;5026047;28;20036;-60
2023/03/19 09:58:18;;;;;;;20.73;9.23;;;24.10;99.90;;;;;;5026036;28;20032;-59
2023/03/19 10:00:51;;;;;;;23.80;8.60;;;24.00;99.90;;;;;;5024974;28;20467;-59
2023/03/19 10:03:30;;;;;;;25.42;7.85;;;24.00;99.90;;;;;;5013673;28;20538;-59
2023/03/19 10:06:06;;;;;;;33.00;9.98;;;23.90;99.90;;;;;;5025014;28;20104;-59
2023/03/19 10:08:46;;;;;;;26.63;9.10;;;23.80;99.90;;;;;;5025777;28;20033;-59
2023/03/19 10:11:23;;;;;;;25.23;8.57;;;23.80;99.90;;;;;;5023441;28;20025;-58
2023/03/19 10:13:57;;;;;;;28.80;8.75;;;23.80;99.90;;;;;;5021035;28;20033;-59
2023/03/19 10:16:27;;;;;;;22.92;8.32;;;23.70;99.90;;;;;;5025461;28;20418;-59
2023/03/19 10:19:00;;;;;;;35.00;10.43;;;23.70;99.90;;;;;;5024973;28;20033;-60
2023/03/19 10:21:49;;;;;;;36.00;8.88;;;23.60;99.90;;;;;;5025704;28;20390;-59
2023/03/19 10:24:32;;;;;;;36.40;8.27;;;23.60;99.90;;;;;;5018916;28;20108;-60
2023/03/19 10:27:11;;;;;;;35.20;7.53;;;23.60;99.90;;;;;;5013806;28;20034;-59
2023/03/19 10:29:40;;;;;;;34.80;10.77;;;23.60;99.90;;;;;;5016779;28;20042;-59
2023/03/19 10:32:13;;;;;;;39.42;10.32;;;23.60;99.90;;;;;;5019292;28;20026;-59
2023/03/19 10:34:47;;;;;;;35.20;9.60;;;23.50;99.90;;;;;;5012667;28;20034;-59
2023/03/19 10:37:21;;;;;;;35.45;8.75;;;23.50;99.90;;;;;;5014381;28;20029;-60
2023/03/19 10:39:55;;;;;;;37.40;9.63;;;23.50;99.90;;;;;;5021021;28;20448;-59
2023/03/19 10:42:46;;;;;;;32.65;7.72;;;23.40;99.90;;;;;;5007621;28;20045;-59
2023/03/19 10:45:28;;;;;;;31.35;8.32;;;23.40;99.90;;;;;;5020066;28;20025;-59
2023/03/19 10:47:57;;;;;;;38.55;9.52;;;23.30;99.90;;;;;;5009593;28;20112;-59
2023/03/19 10:50:52;;;;;;;42.97;10.63;;;23.30;99.90;;;;;;5015510;28;20018;-59
2023/03/19 10:53:28;;;;;;;31.35;8.40;;;23.30;99.90;;;;;;4997428;28;20056;-59
2023/03/19 10:55:59;;;;;;;40.40;9.07;;;23.20;99.90;;;;;;5021113;28;20033;-59
2023/03/19 10:58:29;;;;;;;31.15;9.25;;;23.20;99.90;;;;;;5022294;28;20102;-59
2023/03/19 11:01:11;;;;;;;37.35;9.25;;;23.10;99.90;;;;;;5019683;28;20505;-59
2023/03/19 11:03:49;;;;;;;36.75;9.57;;;23.00;99.90;;;;;;5015794;28;20061;-59
2023/03/19 11:06:19;;;;;;;45.72;9.65;;;22.90;99.90;;;;;;5025093;28;20435;-59
2023/03/19 11:09:01;;;;;;;40.92;11.70;;;22.90;99.90;;;;;;5029327;28;20154;-59
2023/03/19 11:11:45;;;;;;;30.70;10.55;;;22.90;99.90;;;;;;5020573;28;20021;-58
2023/03/19 11:14:18;;;;;;;44.20;10.93;;;22.80;99.90;;;;;;5028436;28;20026;-59
2023/03/19 11:17:02;;;;;;;46.78;10.73;;;22.80;99.90;;;;;;5031643;28;20060;-61
2023/03/19 11:19:43;;;;;;;51.47;11.88;;;22.80;99.90;;;;;;5012377;28;20017;-59
2023/03/19 11:22:19;;;;;;;41.95;10.13;;;22.70;99.90;;;;;;5022447;28;20026;-59
2023/03/19 11:24:53;;;;;;;40.53;12.02;;;22.70;99.90;;;;;;5023520;28;20037;-59
2023/03/19 11:27:27;;;;;;;;;;;22.70;99.90;;;;;;5020290;28;20806;-58
2023/03/19 11:29:55;;;;;;;43.47;9.80;;;22.60;99.90;;;;;;5029317;28;20409;-58
2023/03/19 11:32:47;;;;;;;38.53;9.80;;;22.60;99.90;;;;;;5034970;28;20033;-59
2023/03/19 11:35:27;;;;;;;38.05;10.48;;;22.50;99.90;;;;;;5020263;28;20381;-61
2023/03/19 11:37:59;;;;;;;45.47;11.32;;;22.40;99.90;;;;;;5017961;28;20470;-58
2023/03/19 11:41:05;;;;;;;30.00;9.75;;;22.30;99.90;;;;;;5018921;28;20044;-58
2023/03/19 11:43:50;;;;;;;46.05;12.25;;;22.20;99.90;;;;;;5020027;28;20033;-59
2023/03/19 11:46:30;;;;;;;48.03;10.57;;;22.20;99.90;;;;;;5020229;28;20029;-58
2023/03/19 11:49:21;;;;;;;34.22;10.52;;;22.20;99.90;;;;;;5018402;28;20064;-58
2023/03/19 11:52:13;;;;;;;37.60;10.00;;;22.20;99.90;;;;;;5024143;28;20075;-59
2023/03/19 11:55:07;;;;;;;47.20;11.80;;;22.10;99.90;;;;;;5017661;28;20061;-60
2023/03/19 11:58:01;;;;;;;35.83;9.90;;;22.00;99.90;;;;;;5025299;28;20053;-58
2023/03/19 12:00:44;;;;;;;35.60;10.67;;;21.90;99.90;;;;;;5019424;28;20052;-58
2023/03/19 12:03:32;;;;;;;36.72;11.40;;;21.90;99.90;;;;;;5016896;28;20144;-58
2023/03/19 12:06:05;;;;;;;38.20;10.90;;;22.00;99.90;;;;;;5019776;28;20068;-59
2023/03/19 12:08:47;;;;;;;42.63;11.55;;;21.90;99.90;;;;;;5016410;28;20505;-57
2023/03/19 12:11:24;;;;;;;35.55;11.35;;;21.70;99.90;;;;;;5033673;28;20378;-59
2023/03/19 12:14:23;;;;;;;37.85;11.80;;;21.60;99.90;;;;;;5022461;28;20041;-58
2023/03/19 12:17:12;;;;;;;48.20;12.35;;;21.60;99.90;;;;;;5028482;28;20080;-58
2023/03/19 12:20:06;;;;;;;41.33;11.95;;;21.60;99.90;;;;;;5023202;28;20033;-57
2023/03/19 12:22:51;;;;;;;58.15;15.77;;;21.60;99.90;;;;;;5019270;28;20034;-58
2023/03/19 12:25:31;;;;;;;43.85;12.50;;;21.70;99.90;;;;;;5023047;28;20040;-58
2023/03/19 12:28:24;;;;;;;44.58;13.48;;;21.70;99.90;;;;;;5021507;28;20061;-59
2023/03/19 12:31:40;;;;;;;51.50;13.57;;;21.70;99.90;;;;;;5001150;28;20037;-58
2023/03/19 12:34:33;;;;;;;53.53;14.35;;;21.70;99.90;;;;;;4959126;28;20058;-58
2023/03/19 12:37:22;;;;;;;49.45;13.20;;;21.70;99.90;;;;;;5026388;28;20037;-58
2023/03/19 12:40:14;;;;;;;46.15;12.82;;;21.70;99.90;;;;;;5026349;28;20025;-61
2023/03/19 12:42:42;;;;;;;46.42;12.95;;;21.70;99.90;;;;;;5020020;28;20026;-58
2023/03/19 12:45:33;;;;;;;53.45;15.02;;;21.70;99.90;;;;;;5026195;28;20029;-59
2023/03/19 12:48:09;;;;;;;46.00;13.75;;;21.70;99.90;;;;;;5025590;28;20045;-58
2023/03/19 12:50:40;;;;;;;45.22;13.75;;;21.70;99.90;;;;;;5031999;28;20075;-60
2023/03/19 12:53:14;;;;;;;47.03;16.83;;;21.70;99.90;;;;;;5021009;28;20022;-59
2023/03/19 12:55:49;;;;;;;41.92;12.77;;;21.80;99.90;;;;;;5022033;28;20764;-59
2023/03/19 12:58:31;;;;;;;60.53;16.55;;;21.70;99.90;;;;;;5019355;28;20041;-59
2023/03/19 13:01:23;;;;;;;57.40;15.70;;;21.60;99.90;;;;;;5019364;28;20030;-59